Coinjock, North Carolina
Current Conditions -  °F | °C
As of 12:55 PM on Saturday 25 Oct 2014 (Local Time) from KONX Reporting Station
Clear Clear  
Wind Chill: 66°   Ceiling: Unl
Heat Index: 66°   Visibility: 10mi
Dew Point: 43°   Wind: 3mph
Humidity: 43%   Direction: 350°N
Pressure: 29.95"   Gusts: NA
Location:  36.34°N, 75.95°W
Report Text: KONX 251655Z AUTO 35003KT 10SM CLR 19/06 A2995 RMK AO2 T01910062
Loading
Personal Weather Stations






























Interactive Weather Map
Tropical Storm Tracking
New forecast layout! Learn more

10-Day Weather Forecast

Advertisements
Track Severe Weather on mobile